createdAt,value
2022-12-15T00:02:04.719Z,7.93
2022-12-15T00:07:43.775Z,4.05
2022-12-15T00:13:30.362Z,19.00
2022-12-15T00:19:10.337Z,7.78
2022-12-15T00:24:49.709Z,5.00
2022-12-15T00:30:29.891Z,6.50
2022-12-15T00:36:09.137Z,1.80
2022-12-15T00:41:29.638Z,7.88
2022-12-15T00:46:56.343Z,12.98
2022-12-15T00:52:37.487Z,1.98
2022-12-15T00:58:16.883Z,4.20
2022-12-15T01:03:55.979Z,3.00
2022-12-15T01:09:34.976Z,4.95
2022-12-15T01:15:13.841Z,12.98
2022-12-15T01:20:34.702Z,4.63
2022-12-15T01:25:55.945Z,4.32
2022-12-15T01:31:16.972Z,3.60
2022-12-15T01:37:56.833Z,1.52
2022-12-15T01:43:20.842Z,8.65
2022-12-15T01:48:49.401Z,10.30
2022-12-15T01:54:14.950Z,2.35
2022-12-15T01:59:48.845Z,6.47
2022-12-15T02:05:10.172Z,11.13
2022-12-15T02:10:52.130Z,20.58
2022-12-15T02:16:23.406Z,3.33
2022-12-15T02:22:09.943Z,1.13
2022-12-15T02:27:55.040Z,7.57
2022-12-15T02:33:23.951Z,1.67
2022-12-15T02:38:45.040Z,12.05
2022-12-15T02:44:12.437Z,3.40
2022-12-15T02:49:46.099Z,0.40
2022-12-15T02:55:28.474Z,5.45
2022-12-15T03:00:54.436Z,4.82
2022-12-15T03:06:16.559Z,0.77
2022-12-15T03:11:45.163Z,2.13
2022-12-15T03:17:07.492Z,11.30
2022-12-15T03:22:28.162Z,2.80
2022-12-15T03:27:49.124Z,8.38
2022-12-15T03:33:10.036Z,7.55
2022-12-15T03:38:30.626Z,9.48
2022-12-15T03:43:51.006Z,8.38
2022-12-15T03:49:11.857Z,5.40
2022-12-15T03:54:32.534Z,5.00
2022-12-15T03:59:53.649Z,4.05
2022-12-15T04:05:17.918Z,4.03
2022-12-15T04:10:38.669Z,2.75
2022-12-15T04:16:02.827Z,4.82
2022-12-15T04:21:23.226Z,5.63
2022-12-15T04:27:02.252Z,6.45
2022-12-15T04:32:41.993Z,5.13
2022-12-15T04:38:20.861Z,3.10
2022-12-15T04:44:00.015Z,5.57
2022-12-15T04:49:39.748Z,1.83
2022-12-15T04:55:18.611Z,1.80
2022-12-15T05:00:57.656Z,3.25
2022-12-15T05:06:36.909Z,2.45
2022-12-15T05:12:16.095Z,4.25
2022-12-15T05:17:55.207Z,2.72
2022-12-15T05:23:34.472Z,1.67
2022-12-15T05:29:14.235Z,2.83
2022-12-15T05:34:36.018Z,4.75
2022-12-15T05:39:56.528Z,3.17
2022-12-15T05:45:17.187Z,5.78
2022-12-15T05:50:37.759Z,6.22
2022-12-15T05:56:05.885Z,6.28
2022-12-15T06:01:27.682Z,3.13
2022-12-15T06:06:48.483Z,1.45
2022-12-15T06:12:09.003Z,2.53
2022-12-15T06:17:29.545Z,1.02
2022-12-15T06:22:50.302Z,0.98
2022-12-15T06:28:10.966Z,3.00
2022-12-15T06:33:31.699Z,11.38
2022-12-15T06:38:52.828Z,4.13
2022-12-15T06:44:15.652Z,10.70
2022-12-15T06:49:36.288Z,2.85
2022-12-15T06:54:57.024Z,2.05
2022-12-15T07:00:17.784Z,0.80
2022-12-15T07:05:38.469Z,4.05
2022-12-15T07:10:59.494Z,1.83
2022-12-15T07:16:21.804Z,4.35
2022-12-15T07:21:42.689Z,7.65
2022-12-15T07:27:03.196Z,10.55
2022-12-15T07:32:24.070Z,15.57
2022-12-15T07:37:44.585Z,24.90
2022-12-15T07:43:05.254Z,30.67
2022-12-15T07:48:27.208Z,29.85
2022-12-15T07:53:50.070Z,22.35
2022-12-15T07:59:10.553Z,21.70
2022-12-15T08:04:31.827Z,21.17
2022-12-15T08:09:53.821Z,15.55
2022-12-15T08:15:15.400Z,12.40
2022-12-15T08:20:36.300Z,13.93
2022-12-15T08:26:12.219Z,18.92
2022-12-15T08:31:33.789Z,16.58
2022-12-15T08:36:56.823Z,25.38
2022-12-15T08:42:17.533Z,17.48
2022-12-15T08:47:38.512Z,23.83
2022-12-15T08:53:29.082Z,20.65
2022-12-15T08:58:40.133Z,22.67
2022-12-15T09:04:01.421Z,29.85
2022-12-15T09:09:22.647Z,26.50
2022-12-15T09:14:43.214Z,21.77
2022-12-15T09:20:04.358Z,20.25
2022-12-15T09:25:25.984Z,15.98
2022-12-15T09:30:48.177Z,19.05
2022-12-15T09:36:10.772Z,22.42
2022-12-15T09:49:19.617Z,15.70
2022-12-15T09:54:43.870Z,19.80
2022-12-15T10:11:56.086Z,19.63
2022-12-15T10:17:21.357Z,22.45
2022-12-15T10:22:42.156Z,25.27
2022-12-15T10:28:15.686Z,25.95
2022-12-15T10:33:48.537Z,19.80
2022-12-15T10:39:14.314Z,22.70
2022-12-15T10:44:41.614Z,18.48
2022-12-15T10:50:31.508Z,18.65
2022-12-15T10:56:01.218Z,21.92
2022-12-15T11:01:26.202Z,19.50
2022-12-15T11:06:48.437Z,20.95
2022-12-15T11:12:36.937Z,20.50
2022-12-15T11:18:11.261Z,31.63
2022-12-15T11:23:55.089Z,23.63
2022-12-15T11:29:59.211Z,23.38
2022-12-15T11:35:33.365Z,21.00
2022-12-15T11:40:57.949Z,26.52
2022-12-15T11:52:03.265Z,24.48
2022-12-15T11:57:26.341Z,24.27
2022-12-15T12:03:14.746Z,31.40
2022-12-15T12:09:03.927Z,23.30
2022-12-15T12:15:02.416Z,30.20
2022-12-15T12:20:36.091Z,24.40
2022-12-15T12:26:11.371Z,30.27
2022-12-15T12:31:51.962Z,22.20
2022-12-15T12:37:22.703Z,23.02
2022-12-15T12:42:53.165Z,35.97
2022-12-15T12:48:38.624Z,32.47
2022-12-15T12:54:00.180Z,27.55
2022-12-15T12:59:29.511Z,28.10
2022-12-15T13:05:04.433Z,35.92
2022-12-15T13:15:51.191Z,28.80
2022-12-15T13:21:35.602Z,32.55
2022-12-15T13:27:08.081Z,29.08
2022-12-15T13:32:44.185Z,25.17
2022-12-15T13:38:17.928Z,22.58
2022-12-15T13:43:45.978Z,25.85
2022-12-15T13:49:16.659Z,30.42
2022-12-15T13:54:41.374Z,28.58
2022-12-15T14:00:18.417Z,30.02
2022-12-15T14:05:42.958Z,33.53
2022-12-15T14:11:22.460Z,31.08
2022-12-15T14:16:44.498Z,32.38
2022-12-15T14:22:35.846Z,33.00
2022-12-15T14:27:56.806Z,33.70
2022-12-15T14:33:18.308Z,33.28
2022-12-15T14:38:54.033Z,29.73
2022-12-15T14:44:38.313Z,30.70
2022-12-15T14:50:01.590Z,32.97
2022-12-15T14:55:39.473Z,27.95
2022-12-15T15:01:02.015Z,26.63
2022-12-15T15:06:29.625Z,21.10
2022-12-15T15:12:16.467Z,27.38
2022-12-15T15:17:53.237Z,19.92
2022-12-15T15:23:17.955Z,23.20
2022-12-15T15:34:00.514Z,14.18
2022-12-15T15:39:21.487Z,9.05
2022-12-15T15:44:42.137Z,10.75
2022-12-15T15:50:02.549Z,6.43
2022-12-15T15:55:33.700Z,6.28
2022-12-15T16:01:00.250Z,5.18
2022-12-15T16:06:24.401Z,7.07
2022-12-15T16:11:46.454Z,4.10
2022-12-15T16:17:09.182Z,4.93
2022-12-15T16:22:30.241Z,3.55
2022-12-15T16:27:51.147Z,6.90
2022-12-15T16:33:14.773Z,4.15
2022-12-15T16:38:38.046Z,4.32
2022-12-15T16:43:58.890Z,6.80
2022-12-15T16:49:19.425Z,5.00
2022-12-15T16:54:40.272Z,7.82
2022-12-15T17:00:01.645Z,4.13
2022-12-15T17:05:26.219Z,10.65
2022-12-15T17:10:49.306Z,7.20
2022-12-15T17:16:11.347Z,17.35
2022-12-15T17:21:36.569Z,11.48
2022-12-15T17:26:57.672Z,10.45
2022-12-15T17:32:18.051Z,8.25
2022-12-15T17:37:39.724Z,12.95
2022-12-15T17:43:00.173Z,8.90
2022-12-15T17:48:21.770Z,11.73
2022-12-15T17:53:44.595Z,11.68
2022-12-15T17:59:11.822Z,10.60
2022-12-15T18:04:32.638Z,10.98
2022-12-15T18:09:53.228Z,14.23
2022-12-15T18:15:20.849Z,13.38
2022-12-15T18:20:41.454Z,8.50
2022-12-15T18:26:03.357Z,14.25
2022-12-15T18:31:26.989Z,15.07
2022-12-15T18:36:47.971Z,8.43
2022-12-15T18:42:16.722Z,12.00
2022-12-15T18:47:37.305Z,11.13
2022-12-15T18:53:02.623Z,13.35
2022-12-15T18:58:29.723Z,18.10
2022-12-15T19:03:50.640Z,12.43
2022-12-15T19:09:29.320Z,10.65
2022-12-15T19:14:51.979Z,14.05
2022-12-15T19:20:37.476Z,12.15
2022-12-15T19:25:58.359Z,13.00
2022-12-15T19:31:19.232Z,11.18
2022-12-15T19:36:40.296Z,10.25
2022-12-15T19:42:03.084Z,8.98
2022-12-15T19:47:23.382Z,7.60
2022-12-15T19:52:48.245Z,11.60
2022-12-15T19:58:31.932Z,5.40
2022-12-15T20:03:53.183Z,7.30
2022-12-15T20:09:17.862Z,6.30
2022-12-15T20:14:38.772Z,10.43
2022-12-15T20:19:59.213Z,7.95
2022-12-15T20:25:29.474Z,16.60
2022-12-15T20:30:51.561Z,8.18
2022-12-15T20:36:15.180Z,7.47
2022-12-15T20:41:35.696Z,5.75
2022-12-15T20:46:56.555Z,9.70
2022-12-15T20:52:22.954Z,6.63
2022-12-15T20:57:43.444Z,7.43
2022-12-15T21:03:18.327Z,10.23
2022-12-15T21:08:38.879Z,6.28
2022-12-15T21:14:04.187Z,9.05
2022-12-15T21:19:25.695Z,4.72
2022-12-15T21:24:47.954Z,6.63
2022-12-15T21:30:17.390Z,4.88
2022-12-15T21:35:39.822Z,7.82
2022-12-15T21:41:03.318Z,9.15
2022-12-15T21:46:28.588Z,9.60
2022-12-15T21:51:56.370Z,5.90
2022-12-15T21:57:18.017Z,6.90
2022-12-15T22:02:39.253Z,4.50
2022-12-15T22:08:12.786Z,4.88
2022-12-15T22:13:33.804Z,6.10
2022-12-15T22:18:57.124Z,4.90
2022-12-15T22:24:17.867Z,3.60
2022-12-15T22:29:38.203Z,4.43
2022-12-15T22:34:58.737Z,4.70
2022-12-15T22:40:20.938Z,3.08
2022-12-15T22:45:42.823Z,7.68
2022-12-15T22:51:05.372Z,3.20
2022-12-15T22:56:36.892Z,4.35
2022-12-15T23:01:57.929Z,5.00
2022-12-15T23:07:19.844Z,5.30
2022-12-15T23:12:40.562Z,5.82
2022-12-15T23:18:01.189Z,5.38
2022-12-15T23:23:21.769Z,4.95
2022-12-15T23:28:43.475Z,5.50
2022-12-15T23:34:04.474Z,5.40
2022-12-15T23:39:25.369Z,4.95
2022-12-15T23:44:46.087Z,8.07
2022-12-15T23:50:07.338Z,9.50
2022-12-15T23:55:28.573Z,9.57
